sensor_id;sensor_type;location;lat;lon;timestamp;pressure;altitude;pressure_sealevel;temperature;humidity
68859;BME280;55864;49.238;8.092;2022-08-21T00:00:21;99472.03;;;19.15;52.75
68859;BME280;55864;49.238;8.092;2022-08-21T00:02:25;99467.09;;;19.12;52.98
68859;BME280;55864;49.238;8.092;2022-08-21T00:04:26;99463.22;;;19.15;53.06
68859;BME280;55864;49.238;8.092;2022-08-21T00:06:27;99473.97;;;19.00;53.36
68859;BME280;55864;49.238;8.092;2022-08-21T00:08:27;99462.75;;;19.05;53.21
68859;BME280;55864;49.238;8.092;2022-08-21T00:10:28;99460.66;;;19.00;53.11
68859;BME280;55864;49.238;8.092;2022-08-21T00:12:28;99462.69;;;18.92;53.50
68859;BME280;55864;49.238;8.092;2022-08-21T00:14:29;99457.78;;;18.95;53.45
68859;BME280;55864;49.238;8.092;2022-08-21T00:16:30;99462.69;;;18.92;54.04
68859;BME280;55864;49.238;8.092;2022-08-21T00:18:32;99461.75;;;18.78;53.97
68859;BME280;55864;49.238;8.092;2022-08-21T00:20:33;99451.53;;;18.75;54.26
68859;BME280;55864;49.238;8.092;2022-08-21T00:22:34;99455.81;;;18.76;54.37
68859;BME280;55864;49.238;8.092;2022-08-21T00:24:35;99455.59;;;18.77;54.34
68859;BME280;55864;49.238;8.092;2022-08-21T00:26:35;99450.50;;;18.76;54.29
68859;BME280;55864;49.238;8.092;2022-08-21T00:28:36;99459.53;;;18.82;54.14
68859;BME280;55864;49.238;8.092;2022-08-21T00:30:37;99459.09;;;18.78;54.51
68859;BME280;55864;49.238;8.092;2022-08-21T00:32:39;99458.88;;;18.73;54.26
68859;BME280;55864;49.238;8.092;2022-08-21T00:34:41;99450.25;;;18.71;53.99
68859;BME280;55864;49.238;8.092;2022-08-21T00:36:41;99450.06;;;18.72;54.10
68859;BME280;55864;49.238;8.092;2022-08-21T00:38:42;99449.50;;;18.77;54.12
68859;BME280;55864;49.238;8.092;2022-08-21T00:40:47;99450.53;;;18.83;54.01
68859;BME280;55864;49.238;8.092;2022-08-21T00:42:48;99444.38;;;18.82;53.97
68859;BME280;55864;49.238;8.092;2022-08-21T00:44:49;99443.75;;;18.80;54.01
68859;BME280;55864;49.238;8.092;2022-08-21T00:46:50;99447.19;;;18.74;54.18
68859;BME280;55864;49.238;8.092;2022-08-21T00:48:50;99440.88;;;18.75;54.20
68859;BME280;55864;49.238;8.092;2022-08-21T00:50:55;99435.38;;;18.83;53.70
68859;BME280;55864;49.238;8.092;2022-08-21T00:52:58;99442.13;;;18.79;53.49
68859;BME280;55864;49.238;8.092;2022-08-21T00:55:00;99442.69;;;18.74;54.04
68859;BME280;55864;49.238;8.092;2022-08-21T00:57:07;99442.06;;;18.72;54.06
68859;BME280;55864;49.238;8.092;2022-08-21T00:59:09;99434.06;;;18.66;54.47
68859;BME280;55864;49.238;8.092;2022-08-21T01:01:10;99444.72;;;18.66;54.41
68859;BME280;55864;49.238;8.092;2022-08-21T01:03:13;99439.38;;;18.66;53.98
68859;BME280;55864;49.238;8.092;2022-08-21T01:05:14;99434.44;;;18.63;54.14
68859;BME280;55864;49.238;8.092;2022-08-21T01:07:16;99441.00;;;18.67;53.93
68859;BME280;55864;49.238;8.092;2022-08-21T01:09:17;99439.13;;;18.61;54.62
68859;BME280;55864;49.238;8.092;2022-08-21T01:11:18;99435.41;;;18.55;54.43
68859;BME280;55864;49.238;8.092;2022-08-21T01:13:20;99433.78;;;18.54;54.65
68859;BME280;55864;49.238;8.092;2022-08-21T01:15:23;99436.03;;;18.57;54.41
68859;BME280;55864;49.238;8.092;2022-08-21T01:17:26;99440.91;;;18.54;54.13
68859;BME280;55864;49.238;8.092;2022-08-21T01:19:27;99436.16;;;18.49;54.57
68859;BME280;55864;49.238;8.092;2022-08-21T01:21:29;99435.38;;;18.49;54.62
68859;BME280;55864;49.238;8.092;2022-08-21T01:23:30;99439.84;;;18.48;54.63
68859;BME280;55864;49.238;8.092;2022-08-21T01:25:32;99438.25;;;18.54;54.36
68859;BME280;55864;49.238;8.092;2022-08-21T01:27:32;99435.38;;;18.49;54.15
68859;BME280;55864;49.238;8.092;2022-08-21T01:29:38;99433.28;;;18.44;54.15
68859;BME280;55864;49.238;8.092;2022-08-21T01:31:39;99430.81;;;18.43;54.41
68859;BME280;55864;49.238;8.092;2022-08-21T01:33:40;99430.41;;;18.46;54.24
68859;BME280;55864;49.238;8.092;2022-08-21T01:35:40;99429.78;;;18.44;54.35
68859;BME280;55864;49.238;8.092;2022-08-21T01:37:43;99429.84;;;18.50;54.11
68859;BME280;55864;49.238;8.092;2022-08-21T01:39:44;99419.16;;;18.44;54.38
68859;BME280;55864;49.238;8.092;2022-08-21T01:41:44;99429.97;;;18.42;54.06
68859;BME280;55864;49.238;8.092;2022-08-21T01:43:45;99427.31;;;18.42;54.27
68859;BME280;55864;49.238;8.092;2022-08-21T01:45:46;99421.16;;;18.42;53.81
68859;BME280;55864;49.238;8.092;2022-08-21T01:47:46;99425.28;;;18.44;54.06
68859;BME280;55864;49.238;8.092;2022-08-21T01:49:47;99422.72;;;18.36;53.89
68859;BME280;55864;49.238;8.092;2022-08-21T01:51:47;99425.94;;;18.46;53.51
68859;BME280;55864;49.238;8.092;2022-08-21T01:53:49;99426.00;;;18.32;54.33
68859;BME280;55864;49.238;8.092;2022-08-21T01:55:50;99419.06;;;18.37;54.03
68859;BME280;55864;49.238;8.092;2022-08-21T01:57:51;99416.59;;;18.36;53.89
68859;BME280;55864;49.238;8.092;2022-08-21T01:59:51;99415.78;;;18.35;53.67
68859;BME280;55864;49.238;8.092;2022-08-21T02:01:53;99408.59;;;18.36;53.57
68859;BME280;55864;49.238;8.092;2022-08-21T02:03:54;99408.38;;;18.31;53.82
68859;BME280;55864;49.238;8.092;2022-08-21T02:05:54;99410.03;;;18.32;53.58
68859;BME280;55864;49.238;8.092;2022-08-21T02:07:55;99400.59;;;18.29;54.06
68859;BME280;55864;49.238;8.092;2022-08-21T02:09:57;99410.41;;;18.29;54.08
68859;BME280;55864;49.238;8.092;2022-08-21T02:11:57;99401.78;;;18.27;54.09
68859;BME280;55864;49.238;8.092;2022-08-21T02:13:58;99401.59;;;18.28;54.00
68859;BME280;55864;49.238;8.092;2022-08-21T02:15:58;99405.50;;;18.32;53.67
68859;BME280;55864;49.238;8.092;2022-08-21T02:18:00;99401.59;;;18.28;53.60
68859;BME280;55864;49.238;8.092;2022-08-21T02:20:02;99404.09;;;18.30;53.77
68859;BME280;55864;49.238;8.092;2022-08-21T02:22:03;99407.75;;;18.29;53.77
68859;BME280;55864;49.238;8.092;2022-08-21T02:24:04;99401.59;;;18.28;53.96
68859;BME280;55864;49.238;8.092;2022-08-21T02:26:07;99403.19;;;18.23;53.91
68859;BME280;55864;49.238;8.092;2022-08-21T02:28:10;99394.22;;;18.24;53.77
68859;BME280;55864;49.238;8.092;2022-08-21T02:30:12;99393.94;;;18.19;53.97
68859;BME280;55864;49.238;8.092;2022-08-21T02:32:13;99396.59;;;18.19;53.95
68859;BME280;55864;49.238;8.092;2022-08-21T02:34:14;99394.31;;;18.09;53.92
68859;BME280;55864;49.238;8.092;2022-08-21T02:36:14;99396.75;;;18.11;54.15
68859;BME280;55864;49.238;8.092;2022-08-21T02:38:17;99397.81;;;18.16;54.22
68859;BME280;55864;49.238;8.092;2022-08-21T02:40:20;99395.41;;;18.21;54.01
68859;BME280;55864;49.238;8.092;2022-08-21T02:42:22;99396.38;;;18.14;54.52
68859;BME280;55864;49.238;8.092;2022-08-21T02:44:23;99391.88;;;18.14;54.18
68859;BME280;55864;49.238;8.092;2022-08-21T02:46:23;99400.84;;;18.13;54.45
68859;BME280;55864;49.238;8.092;2022-08-21T02:48:26;99396.56;;;18.12;54.27
68859;BME280;55864;49.238;8.092;2022-08-21T02:50:30;99403.06;;;18.10;54.08
68859;BME280;55864;49.238;8.092;2022-08-21T02:52:31;99393.91;;;18.12;54.39
68859;BME280;55864;49.238;8.092;2022-08-21T02:54:31;99394.47;;;18.08;54.66
68859;BME280;55864;49.238;8.092;2022-08-21T02:56:32;99399.41;;;18.11;54.48
68859;BME280;55864;49.238;8.092;2022-08-21T02:58:36;99400.63;;;18.08;54.66
68859;BME280;55864;49.238;8.092;2022-08-21T03:00:37;99393.16;;;17.97;54.84
68859;BME280;55864;49.238;8.092;2022-08-21T03:02:38;99398.22;;;17.92;54.94
68859;BME280;55864;49.238;8.092;2022-08-21T03:04:39;99396.97;;;17.88;55.15
68859;BME280;55864;49.238;8.092;2022-08-21T03:06:39;99396.53;;;17.84;55.51
68859;BME280;55864;49.238;8.092;2022-08-21T03:08:40;99397.72;;;17.82;55.41
68859;BME280;55864;49.238;8.092;2022-08-21T03:10:43;99394.00;;;17.76;55.46
68859;BME280;55864;49.238;8.092;2022-08-21T03:12:45;99397.28;;;17.78;55.70
68859;BME280;55864;49.238;8.092;2022-08-21T03:14:47;99392.16;;;17.77;55.92
68859;BME280;55864;49.238;8.092;2022-08-21T03:16:47;99396.00;;;17.74;55.89
68859;BME280;55864;49.238;8.092;2022-08-21T03:18:48;99398.03;;;17.72;56.17
68859;BME280;55864;49.238;8.092;2022-08-21T03:20:48;99393.91;;;17.70;55.85
68859;BME280;55864;49.238;8.092;2022-08-21T03:22:49;99386.53;;;17.65;55.84
68859;BME280;55864;49.238;8.092;2022-08-21T03:24:50;99395.75;;;17.69;56.00
68859;BME280;55864;49.238;8.092;2022-08-21T03:26:50;99396.75;;;17.68;56.18
68859;BME280;55864;49.238;8.092;2022-08-21T03:28:51;99393.47;;;17.66;56.16
68859;BME280;55864;49.238;8.092;2022-08-21T03:30:53;99406.25;;;17.77;56.13
68859;BME280;55864;49.238;8.092;2022-08-21T03:32:53;99405.38;;;17.70;56.12
68859;BME280;55864;49.238;8.092;2022-08-21T03:34:54;99404.09;;;17.66;55.87
68859;BME280;55864;49.238;8.092;2022-08-21T03:36:55;99401.00;;;17.63;56.06
68859;BME280;55864;49.238;8.092;2022-08-21T03:38:55;99401.19;;;17.61;55.98
68859;BME280;55864;49.238;8.092;2022-08-21T03:40:56;99403.22;;;17.59;55.72
68859;BME280;55864;49.238;8.092;2022-08-21T03:42:57;99400.81;;;17.64;55.42
68859;BME280;55864;49.238;8.092;2022-08-21T03:44:57;99402.00;;;17.62;55.78
68859;BME280;55864;49.238;8.092;2022-08-21T03:47:00;99397.06;;;17.59;55.95
68859;BME280;55864;49.238;8.092;2022-08-21T03:49:00;99395.44;;;17.58;55.99
68859;BME280;55864;49.238;8.092;2022-08-21T03:51:01;99394.97;;;17.54;56.19
68859;BME280;55864;49.238;8.092;2022-08-21T03:53:02;99402.19;;;17.60;55.80
68859;BME280;55864;49.238;8.092;2022-08-21T03:55:03;99401.75;;;17.57;55.56
68859;BME280;55864;49.238;8.092;2022-08-21T03:57:03;99407.63;;;17.52;56.40
68859;BME280;55864;49.238;8.092;2022-08-21T03:59:04;99397.38;;;17.49;56.00
68859;BME280;55864;49.238;8.092;2022-08-21T04:01:05;99401.19;;;17.47;56.40
68859;BME280;55864;49.238;8.092;2022-08-21T04:03:07;99401.38;;;17.45;56.36
68859;BME280;55864;49.238;8.092;2022-08-21T04:05:08;99404.66;;;17.47;56.17
68859;BME280;55864;49.238;8.092;2022-08-21T04:07:09;99400.84;;;17.50;56.20
68859;BME280;55864;49.238;8.092;2022-08-21T04:09:10;99401.94;;;17.41;56.46
68859;BME280;55864;49.238;8.092;2022-08-21T04:11:10;99405.88;;;17.45;56.29
68859;BME280;55864;49.238;8.092;2022-08-21T04:13:11;99410.28;;;17.38;56.51
68859;BME280;55864;49.238;8.092;2022-08-21T04:15:11;99410.56;;;17.43;56.56
68859;BME280;55864;49.238;8.092;2022-08-21T04:17:12;99414.41;;;17.40;56.51
68859;BME280;55864;49.238;8.092;2022-08-21T04:19:14;99411.56;;;17.42;56.76
68859;BME280;55864;49.238;8.092;2022-08-21T04:21:14;99410.84;;;17.33;56.40
68859;BME280;55864;49.238;8.092;2022-08-21T04:23:15;99406.25;;;17.42;56.07
68859;BME280;55864;49.238;8.092;2022-08-21T04:25:16;99413.75;;;17.38;56.02
68859;BME280;55864;49.238;8.092;2022-08-21T04:27:17;99409.63;;;17.36;56.44
68859;BME280;55864;49.238;8.092;2022-08-21T04:29:17;99413.97;;;17.37;55.91
68859;BME280;55864;49.238;8.092;2022-08-21T04:31:18;99414.06;;;17.29;56.13
68859;BME280;55864;49.238;8.092;2022-08-21T04:33:19;99419.16;;;17.30;56.88
68859;BME280;55864;49.238;8.092;2022-08-21T04:35:23;99425.13;;;17.32;56.29
68859;BME280;55864;49.238;8.092;2022-08-21T04:37:24;99419.38;;;17.29;56.45
68859;BME280;55864;49.238;8.092;2022-08-21T04:39:24;99426.59;;;17.35;56.38
68859;BME280;55864;49.238;8.092;2022-08-21T04:41:25;99430.19;;;17.27;56.56
68859;BME280;55864;49.238;8.092;2022-08-21T04:43:26;99432.63;;;17.29;56.69
68859;BME280;55864;49.238;8.092;2022-08-21T04:45:28;99435.19;;;17.22;56.86
68859;BME280;55864;49.238;8.092;2022-08-21T04:47:29;99432.19;;;17.25;56.92
68859;BME280;55864;49.238;8.092;2022-08-21T04:49:29;99431.75;;;17.22;56.90
68859;BME280;55864;49.238;8.092;2022-08-21T04:51:34;99427.72;;;17.26;56.59
68859;BME280;55864;49.238;8.092;2022-08-21T04:53:38;99431.09;;;17.20;57.04
68859;BME280;55864;49.238;8.092;2022-08-21T04:55:41;99433.19;;;17.24;56.82
68859;BME280;55864;49.238;8.092;2022-08-21T04:57:42;99437.84;;;17.22;57.19
68859;BME280;55864;49.238;8.092;2022-08-21T04:59:46;99437.06;;;17.22;56.89
68859;BME280;55864;49.238;8.092;2022-08-21T05:01:47;99432.94;;;17.19;56.92
68859;BME280;55864;49.238;8.092;2022-08-21T05:03:52;99428.91;;;17.23;56.85
68859;BME280;55864;49.238;8.092;2022-08-21T05:05:54;99437.06;;;17.22;57.12
68859;BME280;55864;49.238;8.092;2022-08-21T05:07:57;99443.16;;;17.22;57.15
68859;BME280;55864;49.238;8.092;2022-08-21T05:10:00;99443.06;;;17.30;56.86
68859;BME280;55864;49.238;8.092;2022-08-21T05:12:01;99442.44;;;17.28;56.97
68859;BME280;55864;49.238;8.092;2022-08-21T05:14:03;99450.03;;;17.17;57.46
68859;BME280;55864;49.238;8.092;2022-08-21T05:16:04;99455.00;;;17.20;57.57
68859;BME280;55864;49.238;8.092;2022-08-21T05:18:04;99451.72;;;17.03;58.05
68859;BME280;55864;49.238;8.092;2022-08-21T05:20:06;99454.00;;;17.06;57.95
68859;BME280;55864;49.238;8.092;2022-08-21T05:22:06;99452.34;;;17.05;57.92
68859;BME280;55864;49.238;8.092;2022-08-21T05:24:09;99458.41;;;16.99;58.13
68859;BME280;55864;49.238;8.092;2022-08-21T05:26:09;99461.50;;;17.03;58.67
68859;BME280;55864;49.238;8.092;2022-08-21T05:28:10;99459.50;;;17.05;58.31
68859;BME280;55864;49.238;8.092;2022-08-21T05:30:11;99464.06;;;17.11;58.36
68859;BME280;55864;49.238;8.092;2022-08-21T05:32:13;99464.78;;;17.19;58.15
68859;BME280;55864;49.238;8.092;2022-08-21T05:34:17;99467.41;;;17.34;57.52
68859;BME280;55864;49.238;8.092;2022-08-21T05:36:18;99468.50;;;17.39;57.53
68859;BME280;55864;49.238;8.092;2022-08-21T05:38:19;99468.59;;;17.46;57.45
68859;BME280;55864;49.238;8.092;2022-08-21T05:40:21;99469.34;;;17.54;57.49
68859;BME280;55864;49.238;8.092;2022-08-21T05:42:22;99465.16;;;17.60;57.32
68859;BME280;55864;49.238;8.092;2022-08-21T05:44:22;99469.03;;;17.64;56.87
68859;BME280;55864;49.238;8.092;2022-08-21T05:46:23;99461.16;;;17.70;56.91
68859;BME280;55864;49.238;8.092;2022-08-21T05:48:24;99467.59;;;17.97;57.41
68859;BME280;55864;49.238;8.092;2022-08-21T05:50:25;99478.47;;;18.02;57.17
68859;BME280;55864;49.238;8.092;2022-08-21T05:52:25;99468.66;;;18.03;56.82
68859;BME280;55864;49.238;8.092;2022-08-21T05:54:26;99472.00;;;18.11;56.83
68859;BME280;55864;49.238;8.092;2022-08-21T05:56:28;99466.31;;;18.14;56.48
68859;BME280;55864;49.238;8.092;2022-08-21T05:58:30;99474.53;;;18.19;57.02
68859;BME280;55864;49.238;8.092;2022-08-21T06:00:31;99470.44;;;18.17;56.33
68859;BME280;55864;49.238;8.092;2022-08-21T06:02:31;99474.63;;;18.26;55.85
68859;BME280;55864;49.238;8.092;2022-08-21T06:04:35;99471.72;;;18.42;55.86
68859;BME280;55864;49.238;8.092;2022-08-21T06:06:36;99474.13;;;18.58;56.15
68859;BME280;55864;49.238;8.092;2022-08-21T06:08:37;99467.13;;;18.57;55.13
68859;BME280;55864;49.238;8.092;2022-08-21T06:10:38;99476.63;;;18.66;55.20
68859;BME280;55864;49.238;8.092;2022-08-21T06:12:40;99480.25;;;18.86;54.84
68859;BME280;55864;49.238;8.092;2022-08-21T06:14:41;99469.81;;;18.85;54.65
68859;BME280;55864;49.238;8.092;2022-08-21T06:16:41;99475.50;;;18.82;53.82
68859;BME280;55864;49.238;8.092;2022-08-21T06:18:43;99471.50;;;18.92;54.20
68859;BME280;55864;49.238;8.092;2022-08-21T06:20:44;99474.53;;;18.89;53.85
68859;BME280;55864;49.238;8.092;2022-08-21T06:22:44;99471.72;;;18.97;53.73
68859;BME280;55864;49.238;8.092;2022-08-21T06:24:45;99468.50;;;19.02;53.09
68859;BME280;55864;49.238;8.092;2022-08-21T06:26:46;99473.22;;;19.06;53.23
68859;BME280;55864;49.238;8.092;2022-08-21T06:28:48;99474.47;;;19.10;52.70
68859;BME280;55864;49.238;8.092;2022-08-21T06:30:49;99479.03;;;19.23;52.45
68859;BME280;55864;49.238;8.092;2022-08-21T06:32:49;99483.84;;;19.34;53.16
68859;BME280;55864;49.238;8.092;2022-08-21T06:34:50;99473.63;;;19.37;52.03
68859;BME280;55864;49.238;8.092;2022-08-21T06:36:50;99476.31;;;19.44;52.32
68859;BME280;55864;49.238;8.092;2022-08-21T06:38:51;99482.50;;;19.51;52.05
68859;BME280;55864;49.238;8.092;2022-08-21T06:40:52;99478.84;;;19.58;51.50
68859;BME280;55864;49.238;8.092;2022-08-21T06:42:52;99478.47;;;19.68;51.04
68859;BME280;55864;49.238;8.092;2022-08-21T06:44:54;99484.81;;;19.67;50.97
68859;BME280;55864;49.238;8.092;2022-08-21T06:46:55;99481.59;;;19.85;50.67
68859;BME280;55864;49.238;8.092;2022-08-21T06:48:56;99477.69;;;19.87;50.33
68859;BME280;55864;49.238;8.092;2022-08-21T06:50:58;99485.50;;;19.95;50.35
68859;BME280;55864;49.238;8.092;2022-08-21T06:53:00;99482.44;;;19.92;50.66
68859;BME280;55864;49.238;8.092;2022-08-21T06:55:03;99478.31;;;19.89;50.83
68859;BME280;55864;49.238;8.092;2022-08-21T06:57:04;99491.66;;;19.96;51.09
68859;BME280;55864;49.238;8.092;2022-08-21T06:59:05;99485.41;;;20.36;49.82
68859;BME280;55864;49.238;8.092;2022-08-21T07:01:07;99479.63;;;20.19;50.05
68859;BME280;55864;49.238;8.092;2022-08-21T07:03:16;99483.75;;;20.22;50.47
68859;BME280;55864;49.238;8.092;2022-08-21T07:05:17;99480.88;;;20.23;50.24
68859;BME280;55864;49.238;8.092;2022-08-21T07:07:17;99478.44;;;20.28;50.24
68859;BME280;55864;49.238;8.092;2022-08-21T07:09:18;99471.66;;;20.39;49.98
68859;BME280;55864;49.238;8.092;2022-08-21T07:11:21;99482.97;;;20.47;51.13
68859;BME280;55864;49.238;8.092;2022-08-21T07:13:22;99480.31;;;20.47;50.69
68859;BME280;55864;49.238;8.092;2022-08-21T07:15:23;99473.50;;;20.58;50.30
68859;BME280;55864;49.238;8.092;2022-08-21T07:17:24;99472.91;;;20.56;50.00
68859;BME280;55864;49.238;8.092;2022-08-21T07:19:25;99477.41;;;20.62;49.85
68859;BME280;55864;49.238;8.092;2022-08-21T07:21:26;99479.03;;;20.76;49.44
68859;BME280;55864;49.238;8.092;2022-08-21T07:23:28;99471.47;;;20.60;49.08
68859;BME280;55864;49.238;8.092;2022-08-21T07:25:29;99479.66;;;20.65;49.18
68859;BME280;55864;49.238;8.092;2022-08-21T07:27:30;99475.75;;;20.68;49.59
68859;BME280;55864;49.238;8.092;2022-08-21T07:29:30;99475.16;;;20.85;52.42
68859;BME280;55864;49.238;8.092;2022-08-21T07:31:31;99472.44;;;20.98;49.50
68859;BME280;55864;49.238;8.092;2022-08-21T07:33:34;99465.88;;;21.07;49.17
68859;BME280;55864;49.238;8.092;2022-08-21T07:35:34;99467.09;;;20.98;47.79
68859;BME280;55864;49.238;8.092;2022-08-21T07:37:35;99474.72;;;21.01;47.18
68859;BME280;55864;49.238;8.092;2022-08-21T07:39:36;99471.84;;;20.96;48.45
68859;BME280;55864;49.238;8.092;2022-08-21T07:41:37;99476.38;;;21.02;47.86
68859;BME280;55864;49.238;8.092;2022-08-21T07:43:37;99470.81;;;21.04;47.23
68859;BME280;55864;49.238;8.092;2022-08-21T07:45:38;99472.84;;;21.08;47.23
68859;BME280;55864;49.238;8.092;2022-08-21T07:47:39;99471.97;;;21.27;47.17
68859;BME280;55864;49.238;8.092;2022-08-21T07:49:41;99475.25;;;21.36;46.37
68859;BME280;55864;49.238;8.092;2022-08-21T07:51:41;99467.41;;;21.47;45.71
68859;BME280;55864;49.238;8.092;2022-08-21T07:53:47;99469.03;;;21.48;45.32
68859;BME280;55864;49.238;8.092;2022-08-21T07:55:48;99465.00;;;21.84;45.81
68859;BME280;55864;49.238;8.092;2022-08-21T07:57:49;99463.59;;;21.68;44.71
68859;BME280;55864;49.238;8.092;2022-08-21T07:59:49;99468.81;;;21.50;44.83
68859;BME280;55864;49.238;8.092;2022-08-21T08:01:50;99480.28;;;21.64;45.48
68859;BME280;55864;49.238;8.092;2022-08-21T08:03:50;99468.06;;;21.87;44.95
68859;BME280;55864;49.238;8.092;2022-08-21T08:05:53;99470.66;;;22.00;45.16
68859;BME280;55864;49.238;8.092;2022-08-21T08:07:54;99469.28;;;22.22;45.38
68859;BME280;55864;49.238;8.092;2022-08-21T08:09:55;99468.78;;;22.32;44.87
68859;BME280;55864;49.238;8.092;2022-08-21T08:11:55;99467.38;;;22.29;44.53
68859;BME280;55864;49.238;8.092;2022-08-21T08:13:56;99472.69;;;22.36;44.13
68859;BME280;55864;49.238;8.092;2022-08-21T08:15:56;99461.69;;;22.19;44.04
68859;BME280;55864;49.238;8.092;2022-08-21T08:18:01;99466.59;;;22.54;44.23
68859;BME280;55864;49.238;8.092;2022-08-21T08:20:02;99465.75;;;22.60;43.70
68859;BME280;55864;49.238;8.092;2022-08-21T08:22:13;99466.88;;;22.70;43.77
68859;BME280;55864;49.238;8.092;2022-08-21T08:24:13;99462.81;;;22.86;42.76
68859;BME280;55864;49.238;8.092;2022-08-21T08:26:14;99454.41;;;22.82;43.60
68859;BME280;55864;49.238;8.092;2022-08-21T08:28:15;99458.16;;;22.99;43.04
68859;BME280;55864;49.238;8.092;2022-08-21T08:30:18;99451.38;;;22.97;43.14
68859;BME280;55864;49.238;8.092;2022-08-21T08:32:19;99447.50;;;22.93;42.24
68859;BME280;55864;49.238;8.092;2022-08-21T08:34:20;99438.94;;;23.20;42.31
68859;BME280;55864;49.238;8.092;2022-08-21T08:36:31;99444.94;;;23.41;41.37
68859;BME280;55864;49.238;8.092;2022-08-21T08:38:34;99437.13;;;23.69;41.76
68859;BME280;55864;49.238;8.092;2022-08-21T08:40:51;99434.97;;;23.89;40.94
68859;BME280;55864;49.238;8.092;2022-08-21T08:42:53;99432.53;;;24.17;40.52
68859;BME280;55864;49.238;8.092;2022-08-21T08:44:57;99429.41;;;24.20;40.40
68859;BME280;55864;49.238;8.092;2022-08-21T08:47:00;99434.94;;;24.48;39.70
68859;BME280;55864;49.238;8.092;2022-08-21T08:49:06;99427.81;;;24.65;38.92
68859;BME280;55864;49.238;8.092;2022-08-21T08:51:14;99429.81;;;24.58;39.29
68859;BME280;55864;49.238;8.092;2022-08-21T08:53:20;99427.59;;;24.78;38.35
68859;BME280;55864;49.238;8.092;2022-08-21T08:55:30;99421.81;;;25.21;37.65
68859;BME280;55864;49.238;8.092;2022-08-21T08:57:34;99419.59;;;25.30;37.35
68859;BME280;55864;49.238;8.092;2022-08-21T08:59:39;99421.19;;;25.31;36.69
68859;BME280;55864;49.238;8.092;2022-08-21T09:01:41;99419.09;;;25.33;36.87
68859;BME280;55864;49.238;8.092;2022-08-21T09:03:43;99409.06;;;25.40;37.22
68859;BME280;55864;49.238;8.092;2022-08-21T09:05:47;99413.38;;;25.69;36.51
68859;BME280;55864;49.238;8.092;2022-08-21T09:08:03;99414.81;;;26.16;36.11
68859;BME280;55864;49.238;8.092;2022-08-21T09:10:16;99413.50;;;26.19;34.86
68859;BME280;55864;49.238;8.092;2022-08-21T09:12:29;99407.72;;;26.43;34.44
68859;BME280;55864;49.238;8.092;2022-08-21T09:14:45;99407.22;;;26.46;33.98
68859;BME280;55864;49.238;8.092;2022-08-21T09:16:53;99407.13;;;26.58;34.98
68859;BME280;55864;49.238;8.092;2022-08-21T09:19:03;99395.47;;;26.85;33.27
68859;BME280;55864;49.238;8.092;2022-08-21T09:21:14;99405.06;;;27.20;33.67
68859;BME280;55864;49.238;8.092;2022-08-21T09:23:25;99399.13;;;27.39;33.28
68859;BME280;55864;49.238;8.092;2022-08-21T09:25:34;99402.00;;;27.81;33.22
68859;BME280;55864;49.238;8.092;2022-08-21T09:27:40;99398.91;;;27.67;32.60
68859;BME280;55864;49.238;8.092;2022-08-21T09:29:42;99396.47;;;27.66;32.20
68859;BME280;55864;49.238;8.092;2022-08-21T09:31:43;99396.44;;;28.14;31.36
68859;BME280;55864;49.238;8.092;2022-08-21T09:33:44;99388.97;;;28.00;31.43
68859;BME280;55864;49.238;8.092;2022-08-21T09:35:51;99398.28;;;27.87;32.06
68859;BME280;55864;49.238;8.092;2022-08-21T09:37:55;99396.13;;;27.57;31.80
68859;BME280;55864;49.238;8.092;2022-08-21T09:39:57;99395.91;;;27.90;31.81
68859;BME280;55864;49.238;8.092;2022-08-21T09:42:00;99392.22;;;28.28;31.22
68859;BME280;55864;49.238;8.092;2022-08-21T09:44:03;99398.31;;;28.50;31.33
68859;BME280;55864;49.238;8.092;2022-08-21T09:46:09;99399.97;;;28.93;30.37
68859;BME280;55864;49.238;8.092;2022-08-21T09:48:13;99404.50;;;28.83;30.10
68859;BME280;55864;49.238;8.092;2022-08-21T09:50:16;99389.03;;;28.73;29.81
68859;BME280;55864;49.238;8.092;2022-08-21T09:52:17;99403.81;;;28.60;30.48
68859;BME280;55864;49.238;8.092;2022-08-21T09:54:20;99405.59;;;28.87;29.88
68859;BME280;55864;49.238;8.092;2022-08-21T09:56:29;99406.41;;;29.34;29.56
68859;BME280;55864;49.238;8.092;2022-08-21T09:58:31;99403.53;;;28.99;29.93
68859;BME280;55864;49.238;8.092;2022-08-21T10:00:35;99392.09;;;29.38;29.36
68859;BME280;55864;49.238;8.092;2022-08-21T10:02:35;99381.31;;;29.53;29.09
68859;BME280;55864;49.238;8.092;2022-08-21T10:04:36;99385.94;;;29.58;29.15
68859;BME280;55864;49.238;8.092;2022-08-21T10:06:37;99392.22;;;29.07;29.35
68859;BME280;55864;49.238;8.092;2022-08-21T10:08:42;99382.81;;;29.19;29.29
68859;BME280;55864;49.238;8.092;2022-08-21T10:10:43;99385.84;;;29.38;29.41
68859;BME280;55864;49.238;8.092;2022-08-21T10:12:49;99383.91;;;29.23;29.52
68859;BME280;55864;49.238;8.092;2022-08-21T10:15:04;99387.53;;;29.54;28.90
68859;BME280;55864;49.238;8.092;2022-08-21T10:17:15;99373.78;;;29.71;28.72
68859;BME280;55864;49.238;8.092;2022-08-21T10:19:23;99374.06;;;29.74;28.30
68859;BME280;55864;49.238;8.092;2022-08-21T10:21:28;99369.41;;;29.69;28.45
68859;BME280;55864;49.238;8.092;2022-08-21T10:23:41;99370.50;;;29.63;27.86
68859;BME280;55864;49.238;8.092;2022-08-21T10:25:49;99379.63;;;29.37;28.65
68859;BME280;55864;49.238;8.092;2022-08-21T10:27:58;99360.06;;;29.20;28.69
68859;BME280;55864;49.238;8.092;2022-08-21T10:30:05;99369.19;;;29.09;28.83
68859;BME280;55864;49.238;8.092;2022-08-21T10:32:24;99366.34;;;29.26;28.55
68859;BME280;55864;49.238;8.092;2022-08-21T10:34:41;99359.75;;;29.12;28.46
68859;BME280;55864;49.238;8.092;2022-08-21T10:36:48;99357.38;;;29.20;28.38
68859;BME280;55864;49.238;8.092;2022-08-21T10:39:02;99351.44;;;29.23;27.97
68859;BME280;55864;49.238;8.092;2022-08-21T10:41:16;99357.19;;;29.47;28.51
68859;BME280;55864;49.238;8.092;2022-08-21T10:43:29;99356.63;;;29.35;27.96
68859;BME280;55864;49.238;8.092;2022-08-21T10:45:44;99350.16;;;29.51;28.02
68859;BME280;55864;49.238;8.092;2022-08-21T10:47:53;99349.66;;;29.69;27.75